Current | Forecast
Updated: 4:00 PM +08 on February 19, 2018
Observed at Ulan-Ude, Russia
Temperature 14°F
Windchill 4°F
Humidity 67%
Dew Point 5°F
Wind SW at 7 mph
Pressure 30.33 in (Steady)
Conditions Mostly Cloudy
Visibility 6.2 miles
UV 1 out of 16
Clouds Mostly Cloudy (BKN) : 2600 ft
Yesterday's Maximum 12°F
Yesterday's Minimum -9°F approx.
Yesterday's Heating Degree Days 64 approx.
Sunrise8:02 AM +08
Sunset6:15 PM +08
Moon Rise9:37 AM +08
Moon Set10:01 PM +08
Moon PhaseMoon Phase
Waxing Crescent
Raw METARMETAR UIUU 190800Z 23003MPS 200V270 9999 BKN026 M10/M15 Q1027 R26/821550 NOSIG RMK QFE725/0967


Monday
. High: 51° F.
Tuesday
. High: 39° F.
Wednesday
. High: 37° F.
Thursday
. High: 41° F.
Friday
. High: 44° F.
Saturday
. High: 41° F.
Sunday
. High: 51° F.
Monday
. High: 53° F.

Units: English | Metric

Find the Weather for any City, State or Zipcode, or Country:

U.S. State List | Severe Weather | Tropical Storms | Ski Conditions
United States | Canada | Central America | South America | Asia | Europe | Australia | Africa | Islands

Weather Underground

© Copyright 2018
The Weather Company, LLC